createdAt,value
2022-11-07T00:01:21.269Z,9.85
2022-11-07T00:03:48.127Z,10.11
2022-11-07T00:06:14.902Z,9.95
2022-11-07T00:08:41.446Z,10.03
2022-11-07T00:11:08.119Z,10.33
2022-11-07T00:13:34.721Z,10.44
2022-11-07T00:16:06.553Z,10.30
2022-11-07T00:18:33.598Z,10.57
2022-11-07T00:21:10.329Z,10.47
2022-11-07T00:23:40.245Z,10.29
2022-11-07T00:26:12.834Z,10.40
2022-11-07T00:28:42.193Z,10.19
2022-11-07T00:31:10.634Z,10.19
2022-11-07T00:33:37.190Z,10.24
2022-11-07T00:36:04.097Z,10.08
2022-11-07T00:38:30.871Z,9.92
2022-11-07T00:40:59.428Z,9.95
2022-11-07T00:43:26.174Z,9.89
2022-11-07T00:45:53.201Z,9.83
2022-11-07T00:48:19.957Z,9.72
2022-11-07T00:50:46.892Z,9.39
2022-11-07T00:53:13.959Z,9.36
2022-11-07T00:55:40.739Z,9.21
2022-11-07T00:58:13.937Z,8.97
2022-11-07T01:00:41.953Z,8.88
2022-11-07T01:03:27.315Z,8.84
2022-11-07T01:06:02.530Z,8.79
2022-11-07T01:08:31.993Z,8.77
2022-11-07T01:11:04.694Z,8.72
2022-11-07T01:13:31.363Z,8.72
2022-11-07T01:15:57.906Z,8.76
2022-11-07T01:18:24.498Z,8.80
2022-11-07T01:20:51.206Z,8.81
2022-11-07T01:23:18.403Z,8.86
2022-11-07T01:25:45.130Z,8.79
2022-11-07T01:28:11.991Z,8.73
2022-11-07T01:30:43.604Z,8.80
2022-11-07T01:33:10.464Z,8.76
2022-11-07T01:35:37.323Z,9.10
2022-11-07T01:38:04.221Z,9.00
2022-11-07T01:40:31.112Z,9.16
2022-11-07T01:42:57.745Z,9.14
2022-11-07T01:45:30.952Z,9.07
2022-11-07T01:48:01.665Z,8.95
2022-11-07T01:50:28.499Z,8.76
2022-11-07T01:52:56.350Z,8.59
2022-11-07T01:55:29.160Z,8.54
2022-11-07T01:57:59.133Z,8.61
2022-11-07T02:00:26.284Z,8.66
2022-11-07T02:02:57.738Z,8.66
2022-11-07T02:05:27.054Z,8.55
2022-11-07T02:07:54.813Z,8.77
2022-11-07T02:10:21.821Z,8.83
2022-11-07T02:12:48.736Z,8.72
2022-11-07T02:15:15.504Z,8.72
2022-11-07T02:17:42.099Z,8.67
2022-11-07T02:20:09.187Z,8.81
2022-11-07T02:22:44.075Z,9.40
2022-11-07T02:25:14.054Z,9.36
2022-11-07T02:27:43.110Z,9.25
2022-11-07T02:30:13.356Z,9.55
2022-11-07T02:32:40.469Z,9.54
2022-11-07T02:35:34.956Z,9.77
2022-11-07T02:38:05.430Z,9.66
2022-11-07T02:40:32.594Z,9.60
2022-11-07T02:43:00.187Z,9.59
2022-11-07T02:45:30.060Z,9.49
2022-11-07T02:47:56.931Z,9.77
2022-11-07T02:50:23.541Z,9.60
2022-11-07T02:52:50.268Z,9.55
2022-11-07T02:55:17.133Z,9.46
2022-11-07T02:57:43.920Z,9.56
2022-11-07T03:00:12.465Z,9.49
2022-11-07T03:02:39.308Z,9.44
2022-11-07T03:05:06.845Z,9.41
2022-11-07T03:07:33.423Z,9.39
2022-11-07T03:10:00.022Z,9.45
2022-11-07T03:12:26.596Z,9.34
2022-11-07T03:14:53.200Z,9.40
2022-11-07T03:17:19.857Z,9.22
2022-11-07T03:19:46.482Z,9.36
2022-11-07T03:22:13.077Z,9.11
2022-11-07T03:24:39.633Z,9.46
2022-11-07T03:27:06.284Z,9.43
2022-11-07T03:29:33.431Z,9.23
2022-11-07T03:32:00.043Z,9.08
2022-11-07T03:34:26.599Z,8.98
2022-11-07T03:36:53.157Z,8.73
2022-11-07T03:39:25.512Z,8.60
2022-11-07T03:41:52.514Z,8.54
2022-11-07T03:44:19.098Z,8.51
2022-11-07T03:46:45.675Z,8.70
2022-11-07T03:49:12.216Z,8.74
2022-11-07T03:51:38.810Z,8.67
2022-11-07T03:54:05.444Z,8.70
2022-11-07T03:56:32.086Z,8.76
2022-11-07T03:58:58.653Z,8.70
2022-11-07T04:01:25.385Z,8.84
2022-11-07T04:03:56.095Z,8.81
2022-11-07T04:06:23.467Z,8.72
2022-11-07T04:08:50.077Z,8.64
2022-11-07T04:11:35.354Z,8.58
2022-11-07T04:14:20.353Z,8.55
2022-11-07T04:17:05.405Z,8.56
2022-11-07T04:19:31.955Z,8.63
2022-11-07T04:21:58.553Z,8.66
2022-11-07T04:24:25.136Z,8.61
2022-11-07T04:27:10.289Z,8.66
2022-11-07T04:29:36.829Z,8.59
2022-11-07T04:32:03.522Z,8.60
2022-11-07T04:34:30.142Z,8.62
2022-11-07T04:36:56.746Z,8.56
2022-11-07T04:39:23.349Z,8.54
2022-11-07T04:41:49.915Z,8.61
2022-11-07T04:44:16.514Z,8.50
2022-11-07T04:46:43.238Z,8.46
2022-11-07T04:49:09.822Z,8.55
2022-11-07T04:51:42.244Z,8.48
2022-11-07T04:54:15.857Z,8.47
2022-11-07T04:56:42.579Z,8.42
2022-11-07T04:59:09.133Z,8.44
2022-11-07T05:01:35.755Z,8.33
2022-11-07T05:04:02.630Z,8.35
2022-11-07T05:06:29.636Z,8.33
2022-11-07T05:08:56.250Z,8.39
2022-11-07T05:11:22.825Z,8.45
2022-11-07T05:13:49.398Z,8.38
2022-11-07T05:16:19.660Z,8.35
2022-11-07T05:18:46.406Z,8.27
2022-11-07T05:21:13.035Z,8.18
2022-11-07T05:23:39.676Z,8.20
2022-11-07T05:26:06.449Z,8.21
2022-11-07T05:28:39.326Z,8.13
2022-11-07T05:31:07.691Z,8.09
2022-11-07T05:33:34.386Z,7.96
2022-11-07T05:36:15.125Z,7.96
2022-11-07T05:38:43.794Z,8.04
2022-11-07T05:41:11.058Z,8.12
2022-11-07T05:43:38.724Z,8.07
2022-11-07T05:46:06.068Z,8.06
2022-11-07T05:48:32.992Z,8.02
2022-11-07T05:51:00.204Z,7.94
2022-11-07T05:53:27.428Z,7.88
2022-11-07T05:55:54.173Z,7.94
2022-11-07T05:58:21.611Z,7.93
2022-11-07T06:00:48.749Z,7.86
2022-11-07T06:03:16.532Z,7.83
2022-11-07T06:05:46.808Z,7.81
2022-11-07T06:08:14.664Z,7.82
2022-11-07T06:10:42.788Z,7.78
2022-11-07T06:13:13.033Z,7.83
2022-11-07T06:15:40.959Z,7.93
2022-11-07T06:18:12.624Z,8.01
2022-11-07T06:20:39.071Z,8.09
2022-11-07T06:23:06.382Z,8.12
2022-11-07T06:25:33.889Z,8.20
2022-11-07T06:28:02.576Z,8.29
2022-11-07T06:30:29.436Z,8.34
2022-11-07T06:33:11.153Z,8.41
2022-11-07T06:35:37.647Z,8.44
2022-11-07T06:38:06.272Z,8.46
2022-11-07T06:40:33.556Z,8.58
2022-11-07T06:43:26.850Z,8.50
2022-11-07T06:45:53.513Z,8.55
2022-11-07T06:48:20.048Z,8.56
2022-11-07T06:50:46.636Z,8.60
2022-11-07T06:53:14.676Z,8.69
2022-11-07T06:55:41.589Z,8.72
2022-11-07T06:58:08.308Z,8.77
2022-11-07T07:00:36.333Z,8.85
2022-11-07T07:03:03.160Z,8.92
2022-11-07T07:05:29.965Z,8.90
2022-11-07T07:07:56.576Z,8.85
2022-11-07T07:10:25.244Z,9.00
2022-11-07T07:12:53.373Z,8.99
2022-11-07T07:15:20.276Z,9.07
2022-11-07T07:17:47.287Z,9.16
2022-11-07T07:20:13.849Z,9.28
2022-11-07T07:22:40.482Z,9.46
2022-11-07T07:25:07.851Z,9.57
2022-11-07T07:27:34.424Z,9.64
2022-11-07T07:30:03.244Z,9.72
2022-11-07T07:32:29.812Z,9.87
2022-11-07T07:34:56.325Z,9.97
2022-11-07T07:37:22.876Z,10.14
2022-11-07T07:39:49.475Z,10.35
2022-11-07T07:42:16.083Z,10.53
2022-11-07T07:44:44.948Z,10.69
2022-11-07T07:47:11.814Z,10.89
2022-11-07T07:49:38.874Z,11.01
2022-11-07T07:52:05.689Z,11.19
2022-11-07T07:54:32.290Z,11.51
2022-11-07T07:56:58.859Z,11.60
2022-11-07T07:59:25.435Z,11.73
2022-11-07T08:01:56.581Z,11.75
2022-11-07T08:04:24.122Z,11.84
2022-11-07T08:06:50.670Z,12.11
2022-11-07T08:09:17.241Z,12.35
2022-11-07T08:11:43.824Z,12.44
2022-11-07T08:14:11.571Z,12.48
2022-11-07T08:16:38.240Z,12.51
2022-11-07T08:19:04.862Z,12.65
2022-11-07T08:21:31.543Z,12.54
2022-11-07T08:23:58.263Z,12.33
2022-11-07T08:26:26.003Z,12.37
2022-11-07T08:28:53.817Z,12.48
2022-11-07T08:31:20.438Z,12.62
2022-11-07T08:33:47.072Z,12.71
2022-11-07T08:36:13.728Z,12.61
2022-11-07T08:38:40.367Z,12.44
2022-11-07T08:41:06.987Z,12.32
2022-11-07T08:43:33.650Z,12.43
2022-11-07T08:46:00.308Z,12.30
2022-11-07T08:48:28.065Z,12.14
2022-11-07T08:50:56.454Z,12.60
2022-11-07T08:53:25.113Z,13.38
2022-11-07T08:55:52.077Z,13.56
2022-11-07T08:58:19.465Z,13.74
2022-11-07T09:00:46.506Z,14.03
2022-11-07T09:06:00.838Z,14.63
2022-11-07T09:08:27.532Z,14.17
2022-11-07T09:10:54.405Z,13.80
2022-11-07T09:13:21.183Z,14.25
2022-11-07T09:15:51.399Z,14.46
2022-11-07T09:18:19.852Z,14.86
2022-11-07T09:20:47.262Z,14.96
2022-11-07T09:23:14.236Z,15.05
2022-11-07T09:25:41.091Z,15.00
2022-11-07T09:28:07.851Z,15.37
2022-11-07T09:30:34.631Z,15.63
2022-11-07T09:33:01.300Z,16.74
2022-11-07T09:35:28.182Z,16.89
2022-11-07T09:37:54.843Z,17.51
2022-11-07T09:40:46.469Z,17.84
2022-11-07T09:43:39.900Z,17.07
2022-11-07T09:46:21.831Z,17.85
2022-11-07T09:48:55.898Z,17.71
2022-11-07T09:51:35.378Z,17.30
2022-11-07T09:54:07.749Z,16.99
2022-11-07T09:56:37.004Z,17.06
2022-11-07T09:59:15.177Z,16.60
2022-11-07T10:01:41.937Z,16.33
2022-11-07T10:04:25.671Z,16.18
2022-11-07T10:07:09.170Z,15.97
2022-11-07T10:10:03.173Z,15.85
2022-11-07T10:12:51.678Z,16.11
2022-11-07T10:15:30.285Z,16.18
2022-11-07T10:18:15.168Z,16.43
2022-11-07T10:21:37.024Z,16.17
2022-11-07T10:24:09.578Z,15.68
2022-11-07T10:26:36.998Z,15.49
2022-11-07T10:29:20.738Z,15.29
2022-11-07T10:32:24.008Z,16.00
2022-11-07T10:35:07.808Z,16.59
2022-11-07T10:37:35.261Z,16.81
2022-11-07T10:40:01.833Z,16.74
2022-11-07T10:42:31.652Z,16.15
2022-11-07T10:44:58.668Z,16.38
2022-11-07T10:47:27.818Z,17.21
2022-11-07T10:50:00.239Z,18.19
2022-11-07T10:52:28.165Z,18.92
2022-11-07T10:55:06.900Z,17.78
2022-11-07T10:57:35.501Z,17.72
2022-11-07T11:00:05.772Z,18.10
2022-11-07T11:02:45.701Z,17.50
2022-11-07T11:05:22.261Z,16.73
2022-11-07T11:07:48.883Z,16.65
2022-11-07T11:10:28.468Z,16.05
2022-11-07T11:12:55.287Z,15.86
2022-11-07T11:15:26.602Z,16.05
2022-11-07T11:18:07.296Z,16.16
2022-11-07T11:20:41.196Z,16.66
2022-11-07T11:23:19.044Z,16.87
2022-11-07T11:25:48.706Z,16.93
2022-11-07T11:28:25.264Z,16.95
2022-11-07T11:30:58.266Z,17.01
2022-11-07T11:33:35.300Z,16.52
2022-11-07T11:36:28.346Z,16.48
2022-11-07T11:39:26.284Z,15.99
2022-11-07T11:41:56.545Z,15.71
2022-11-07T11:44:29.054Z,15.34
2022-11-07T11:47:06.440Z,15.44
2022-11-07T11:49:43.229Z,15.53
2022-11-07T11:52:16.913Z,15.88
2022-11-07T11:54:45.087Z,16.87
2022-11-07T11:57:23.834Z,17.39
2022-11-07T11:59:58.203Z,17.57
2022-11-07T12:02:48.558Z,18.02
2022-11-07T12:05:15.095Z,17.64
2022-11-07T12:07:50.673Z,17.73
2022-11-07T12:10:40.133Z,18.17
2022-11-07T12:13:29.028Z,17.94
2022-11-07T12:16:20.634Z,18.12
2022-11-07T12:18:55.294Z,17.28
2022-11-07T12:21:33.549Z,17.88
2022-11-07T12:24:20.973Z,17.53
2022-11-07T12:27:02.069Z,16.86
2022-11-07T12:29:31.284Z,15.97
2022-11-07T12:32:09.943Z,15.81
2022-11-07T12:34:42.626Z,15.68
2022-11-07T12:37:19.841Z,15.69
2022-11-07T12:40:11.503Z,15.30
2022-11-07T12:43:00.124Z,14.95
2022-11-07T12:45:52.487Z,15.47
2022-11-07T12:48:43.707Z,14.99
2022-11-07T12:51:15.454Z,15.03
2022-11-07T12:54:16.512Z,15.23
2022-11-07T12:56:47.332Z,14.89
2022-11-07T12:59:23.929Z,14.69
2022-11-07T13:02:04.748Z,14.69
2022-11-07T13:04:39.387Z,14.77
2022-11-07T13:07:13.246Z,14.63
2022-11-07T13:09:51.622Z,14.43
2022-11-07T13:12:26.441Z,14.52
2022-11-07T13:14:53.531Z,14.85
2022-11-07T13:17:27.627Z,14.79
2022-11-07T13:20:03.621Z,15.05
2022-11-07T13:22:39.074Z,15.19
2022-11-07T13:25:16.014Z,15.52
2022-11-07T13:27:55.646Z,15.30
2022-11-07T13:30:31.838Z,15.34
2022-11-07T13:33:00.526Z,16.52
2022-11-07T13:35:39.788Z,17.22
2022-11-07T13:38:19.291Z,17.78
2022-11-07T13:41:04.552Z,18.49
2022-11-07T13:43:42.222Z,18.31
2022-11-07T13:46:17.855Z,17.63
2022-11-07T13:48:56.654Z,17.38
2022-11-07T13:51:26.292Z,17.34
2022-11-07T13:53:55.823Z,17.35
2022-11-07T13:56:35.177Z,17.84
2022-11-07T13:59:06.434Z,17.47
2022-11-07T14:01:59.280Z,17.30
2022-11-07T14:04:28.522Z,16.36
2022-11-07T14:07:01.408Z,16.41
2022-11-07T14:09:30.322Z,15.98
2022-11-07T14:11:57.521Z,15.80
2022-11-07T14:14:26.492Z,15.67
2022-11-07T14:17:00.254Z,16.63
2022-11-07T14:19:27.890Z,17.88
2022-11-07T14:21:56.013Z,19.27
2022-11-07T14:24:24.727Z,18.90
2022-11-07T14:27:05.644Z,17.66
2022-11-07T14:29:32.608Z,16.44
2022-11-07T14:32:01.846Z,15.92
2022-11-07T14:34:28.797Z,15.74
2022-11-07T14:37:01.534Z,15.23
2022-11-07T14:39:31.647Z,14.74
2022-11-07T14:42:00.792Z,14.36
2022-11-07T14:44:54.518Z,14.37
2022-11-07T14:47:25.360Z,14.17
2022-11-07T14:49:52.992Z,14.46
2022-11-07T14:52:34.517Z,13.90
2022-11-07T14:55:03.997Z,13.76
2022-11-07T14:57:35.828Z,13.39
2022-11-07T15:00:13.173Z,13.20
2022-11-07T15:02:39.895Z,12.99
2022-11-07T15:05:21.618Z,12.87
2022-11-07T15:07:49.716Z,12.71
2022-11-07T15:10:25.082Z,12.75
2022-11-07T15:13:04.338Z,12.66
2022-11-07T15:15:35.902Z,12.55
2022-11-07T15:18:06.478Z,12.40
2022-11-07T15:20:37.174Z,12.33
2022-11-07T15:23:05.855Z,12.19
2022-11-07T15:25:35.097Z,12.09
2022-11-07T15:28:58.718Z,11.92
2022-11-07T15:31:30.028Z,11.73
2022-11-07T15:33:59.080Z,11.52
2022-11-07T15:36:25.966Z,11.48
2022-11-07T15:38:52.694Z,11.39
2022-11-07T15:41:19.428Z,11.21
2022-11-07T15:43:46.043Z,11.01
2022-11-07T15:46:21.966Z,10.93
2022-11-07T15:48:49.203Z,10.82
2022-11-07T15:51:15.922Z,10.58
2022-11-07T15:53:42.664Z,10.44
2022-11-07T15:56:15.608Z,10.27
2022-11-07T15:58:42.793Z,10.08
2022-11-07T16:01:10.035Z,9.96
2022-11-07T16:03:37.014Z,9.82
2022-11-07T16:06:16.087Z,9.70
2022-11-07T16:08:42.718Z,9.54
2022-11-07T16:11:11.580Z,9.46
2022-11-07T16:13:39.152Z,9.33
2022-11-07T16:16:07.026Z,9.27
2022-11-07T16:18:39.264Z,9.14
2022-11-07T16:21:06.194Z,9.11
2022-11-07T16:23:32.887Z,9.02
2022-11-07T16:25:59.834Z,8.91
2022-11-07T16:28:30.607Z,8.81
2022-11-07T16:30:57.878Z,8.71
2022-11-07T16:33:25.446Z,8.61
2022-11-07T16:35:55.610Z,8.56
2022-11-07T16:38:23.756Z,8.54
2022-11-07T16:40:51.035Z,8.56
2022-11-07T16:43:18.152Z,8.57
2022-11-07T16:45:50.900Z,8.62
2022-11-07T16:48:26.598Z,8.65
2022-11-07T16:50:54.579Z,8.65
2022-11-07T16:53:21.975Z,8.65
2022-11-07T16:55:53.596Z,8.60
2022-11-07T16:58:26.682Z,8.61
2022-11-07T17:00:55.120Z,8.59
2022-11-07T17:03:22.423Z,8.49
2022-11-07T17:05:52.406Z,8.42
2022-11-07T17:08:24.489Z,8.37
2022-11-07T17:10:51.306Z,8.29
2022-11-07T17:13:18.078Z,8.29
2022-11-07T17:15:44.881Z,8.25
2022-11-07T17:18:34.498Z,8.18
2022-11-07T17:21:01.077Z,8.15
2022-11-07T17:23:30.368Z,8.08
2022-11-07T17:26:00.185Z,8.01
2022-11-07T17:28:26.903Z,8.03
2022-11-07T17:30:53.494Z,8.03
2022-11-07T17:33:20.127Z,8.15
2022-11-07T17:35:47.178Z,8.20
2022-11-07T17:38:17.202Z,8.23
2022-11-07T17:40:44.479Z,8.24
2022-11-07T17:43:11.117Z,8.26
2022-11-07T17:45:38.236Z,8.28
2022-11-07T17:48:05.161Z,8.28
2022-11-07T17:50:31.929Z,8.24
2022-11-07T17:52:58.597Z,8.15
2022-11-07T17:55:25.450Z,8.09
2022-11-07T17:57:52.311Z,8.02
2022-11-07T18:00:21.827Z,8.07
2022-11-07T18:02:50.278Z,8.13
2022-11-07T18:05:19.177Z,8.06
2022-11-07T18:07:46.587Z,7.90
2022-11-07T18:10:18.120Z,7.77
2022-11-07T18:12:44.710Z,7.66
2022-11-07T18:15:14.699Z,7.68
2022-11-07T18:17:42.913Z,7.61
2022-11-07T18:20:10.766Z,7.37
2022-11-07T18:22:38.603Z,7.15
2022-11-07T18:25:09.301Z,6.99
2022-11-07T18:27:35.930Z,6.96
2022-11-07T18:30:04.045Z,6.83
2022-11-07T18:32:35.726Z,6.77
2022-11-07T18:35:04.435Z,6.75
2022-11-07T18:37:31.071Z,6.73
2022-11-07T18:39:57.637Z,6.66
2022-11-07T18:42:24.212Z,6.64
2022-11-07T18:44:50.865Z,6.54
2022-11-07T18:47:17.428Z,6.47
2022-11-07T18:49:44.382Z,6.41
2022-11-07T18:52:11.015Z,6.26
2022-11-07T18:54:37.764Z,6.16
2022-11-07T18:57:04.502Z,6.10
2022-11-07T18:59:31.124Z,6.00
2022-11-07T19:01:58.931Z,6.01
2022-11-07T19:04:25.569Z,6.13
2022-11-07T19:06:57.830Z,6.06
2022-11-07T19:09:27.077Z,6.15
2022-11-07T19:11:54.046Z,6.11
2022-11-07T19:14:20.693Z,6.08
2022-11-07T19:16:47.329Z,6.05
2022-11-07T19:19:13.901Z,5.96
2022-11-07T19:21:43.744Z,5.97
2022-11-07T19:24:10.517Z,6.02
2022-11-07T19:26:39.531Z,5.99
2022-11-07T19:29:09.809Z,5.90
2022-11-07T19:31:37.477Z,5.77
2022-11-07T19:34:05.324Z,5.86
2022-11-07T19:36:32.702Z,5.99
2022-11-07T19:38:59.344Z,5.81
2022-11-07T19:41:26.078Z,5.60
2022-11-07T19:43:52.716Z,5.41
2022-11-07T19:46:22.141Z,5.35
2022-11-07T19:48:50.121Z,5.27
2022-11-07T19:51:21.991Z,5.22
2022-11-07T19:53:57.295Z,5.18
2022-11-07T19:56:25.755Z,5.14
2022-11-07T19:58:54.754Z,5.04
2022-11-07T20:01:25.416Z,4.98
2022-11-07T20:03:52.986Z,4.93
2022-11-07T20:06:23.415Z,4.85
2022-11-07T20:08:51.024Z,4.84
2022-11-07T20:11:20.977Z,4.91
2022-11-07T20:13:48.133Z,4.88
2022-11-07T20:16:15.349Z,4.86
2022-11-07T20:18:42.021Z,4.80
2022-11-07T20:21:12.923Z,4.77
2022-11-07T20:23:41.194Z,4.79
2022-11-07T20:26:13.693Z,4.71
2022-11-07T20:28:40.366Z,4.66
2022-11-07T20:31:19.363Z,4.58
2022-11-07T20:33:46.049Z,4.53
2022-11-07T20:36:14.608Z,4.47
2022-11-07T20:38:43.026Z,4.44
2022-11-07T20:41:10.729Z,4.42
2022-11-07T20:43:39.333Z,4.42
2022-11-07T20:46:14.922Z,4.39
2022-11-07T20:48:42.369Z,4.37
2022-11-07T20:51:15.482Z,4.37
2022-11-07T20:53:48.478Z,4.33
2022-11-07T20:56:16.337Z,4.32
2022-11-07T20:58:43.491Z,4.33
2022-11-07T21:01:17.919Z,4.33
2022-11-07T21:03:44.988Z,4.30
2022-11-07T21:06:12.830Z,4.37
2022-11-07T21:08:40.449Z,4.38
2022-11-07T21:11:07.517Z,4.32
2022-11-07T21:13:34.921Z,4.30
2022-11-07T21:16:01.951Z,4.29
2022-11-07T21:18:28.599Z,4.28
2022-11-07T21:20:55.150Z,4.31
2022-11-07T21:23:21.749Z,4.37
2022-11-07T21:25:48.499Z,4.42
2022-11-07T21:28:17.830Z,4.48
2022-11-07T21:30:57.325Z,4.54
2022-11-07T21:33:24.105Z,4.62
2022-11-07T21:35:50.687Z,4.71
2022-11-07T21:38:17.264Z,4.77
2022-11-07T21:40:43.801Z,4.72
2022-11-07T21:43:11.376Z,4.61
2022-11-07T21:45:38.503Z,4.43
2022-11-07T21:48:05.367Z,4.33
2022-11-07T21:50:44.195Z,4.21
2022-11-07T21:53:11.527Z,4.14
2022-11-07T21:55:38.133Z,4.10
2022-11-07T21:58:04.686Z,4.09
2022-11-07T22:00:35.800Z,3.98
2022-11-07T22:03:02.927Z,3.85
2022-11-07T22:05:29.498Z,3.71
2022-11-07T22:07:56.524Z,3.70
2022-11-07T22:10:23.215Z,3.69
2022-11-07T22:12:52.292Z,3.71
2022-11-07T22:15:18.896Z,3.79
2022-11-07T22:17:45.458Z,3.79
2022-11-07T22:20:12.619Z,3.83
2022-11-07T22:22:39.204Z,3.75
2022-11-07T22:25:06.519Z,3.75
2022-11-07T22:27:33.083Z,3.79
2022-11-07T22:29:59.688Z,3.74
2022-11-07T22:32:26.309Z,3.75
2022-11-07T22:34:52.889Z,3.71
2022-11-07T22:37:19.425Z,3.75
2022-11-07T22:39:46.014Z,3.73
2022-11-07T22:42:12.577Z,3.78
2022-11-07T22:44:39.169Z,3.70
2022-11-07T22:47:05.785Z,3.60
2022-11-07T22:49:32.684Z,3.43
2022-11-07T22:51:59.262Z,3.26
2022-11-07T22:54:25.887Z,3.20
2022-11-07T22:56:52.511Z,3.20
2022-11-07T22:59:19.247Z,3.17
2022-11-07T23:01:45.950Z,3.12
2022-11-07T23:04:18.018Z,3.11
2022-11-07T23:06:45.215Z,3.07
2022-11-07T23:09:16.197Z,3.06
2022-11-07T23:11:48.290Z,3.03
2022-11-07T23:14:18.086Z,2.99
2022-11-07T23:16:50.533Z,2.94
2022-11-07T23:19:20.110Z,2.92
2022-11-07T23:21:46.970Z,2.88
2022-11-07T23:24:13.761Z,2.88
2022-11-07T23:26:40.510Z,2.87
2022-11-07T23:29:18.964Z,2.97
2022-11-07T23:31:47.555Z,2.95
2022-11-07T23:34:14.791Z,2.90
2022-11-07T23:36:43.941Z,2.87
2022-11-07T23:39:19.882Z,2.85
2022-11-07T23:41:46.970Z,2.81
2022-11-07T23:44:14.883Z,2.76
2022-11-07T23:47:00.610Z,2.76
2022-11-07T23:49:36.131Z,2.77
2022-11-07T23:52:03.582Z,2.73
2022-11-07T23:54:48.684Z,2.66
2022-11-07T23:57:15.382Z,2.59
